Latest Weather Observations for Little Bay

IDN60801

Issued at 1:13 pm EDT Monday 26 October 2020 (issued every 10 minutes, with the page automatically refreshed every 10 minutes)

About weather observations | Map of weather stations | Latest weather observations for NSW | Other Formats
Station Details ID: 066051 Name: LITTLE BAY (THE COAST GOLF CLUB) Lat: -33.98 Lon: 151.25 Height: 22.0 m
Data from the previous 72 hours. | See also: Recent months at Little Bay
Date/Time
EDT
Temp
°C
App
Temp
°C
Dew
Point
°C
Rel
Hum
%
Delta-T
°C
Wind Press
QNH
hPa
Press
MSL
hPa
Rain since
9am
mm
Dir  Spd
km/h
Gust
km/h
Spd
kts
Gust
kts
26/01:00pm - - - - - SSE 39 52 21 28 - - -
26/12:30pm - - - - - SSE 37 50 20 27 - - -
26/12:00pm - - - - - SSE 41 54 22 29 - - -
26/11:30am - - - - - S 39 50 21 27 - - -
26/11:00am - - - - - S 41 56 22 30 - - -
26/10:30am - - - - - S 39 54 21 29 - - -
26/10:27am - - - - - S 35 54 19 29 - - -
26/10:00am - - - - - S 41 57 22 31 - - -
26/09:54am - - - - - S 41 61 22 33 - - -
26/09:30am - - - - - SSE 50 65 27 35 - - -
26/09:00am - - - - - SSE 46 65 25 35 - - -
26/08:59am - - - - - SSE 46 65 25 35 - - -
26/08:30am - - - - - SSE 48 65 26 35 - - -
26/08:00am - - - - - SSE 52 67 28 36 - - -
26/07:48am - - - - - SSE 46 69 25 37 - - -
26/07:30am - - - - - SSE 44 63 24 34 - - -
26/07:06am - - - - - SSE 48 70 26 38 - - -
26/07:00am - - - - - SSE 50 65 27 35 - - -
26/06:39am - - - - - SSE 48 69 26 37 - - -
26/06:30am - - - - - SSE 50 67 27 36 - - -
26/06:02am - - - - - SSE 52 72 28 39 - - -
26/06:00am - - - - - SSE 50 69 27 37 - - -
26/05:36am - - - - - SSE 46 72 25 39 - - -
26/05:30am - - - - - SSE 46 61 25 33 - - -
26/05:00am - - - - - SSE 50 69 27 37 - - -
26/04:45am - - - - - SSE 46 65 25 35 - - -
26/04:30am - - - - - SSE 48 63 26 34 - - -
26/04:00am - - - - - SSE 46 63 25 34 - - -
26/03:30am - - - - - SSE 39 54 21 29 - - -
26/03:00am - - - - - SSE 46 59 25 32 - - -
26/02:48am - - - - - SSE 46 65 25 35 - - -
26/02:30am - - - - - SSE 44 61 24 33 - - -
26/02:04am - - - - - SSE 43 61 23 33 - - -
26/02:00am - - - - - SSE 44 63 24 34 - - -
26/01:30am - - - - - S 43 65 23 35 - - -
26/01:10am - - - - - S 43 61 23 33 - - -
26/01:00am - - - - - SSE 46 61 25 33 - - -
26/12:41am - - - - - S 41 59 22 32 - - -
26/12:30am - - - - - S 44 59 24 32 - - -
26/12:06am - - - - - S 43 65 23 35 - - -
26/12:00am - - - - - S 41 54 22 29 - - -
 
Date/Time
EDT
Temp
°C
App
Temp
°C
Dew
Point
°C
Rel
Hum
%
Delta-T
°C
Wind Press
QNH
hPa
Press
MSL
hPa
Rain since
9am
mm
Dir  Spd
km/h
Gust
km/h
Spd
kts
Gust
kts
25/11:30pm - - - - - S 43 59 23 32 - - -
25/11:00pm - - - - - S 44 59 24 32 - - -
25/10:46pm - - - - - S 41 59 22 32 - - -
25/10:30pm - - - - - S 43 57 23 31 - - -
25/10:00pm - - - - - S 41 57 22 31 - - -
25/09:45pm - - - - - S 43 63 23 34 - - -
25/09:30pm - - - - - S 39 52 21 28 - - -
25/09:06pm - - - - - S 41 61 22 33 - - -
25/09:00pm - - - - - S 39 54 21 29 - - -
25/08:39pm - - - - - S 39 57 21 31 - - -
25/08:30pm - - - - - S 37 52 20 28 - - -
25/08:00pm - - - - - S 37 52 20 28 - - -
25/07:30pm - - - - - S 33 52 18 28 - - -
25/07:14pm - - - - - S 41 61 22 33 - - -
25/07:00pm - - - - - S 43 54 23 29 - - -
25/06:30pm - - - - - SSW 32 50 17 27 - - -
25/06:00pm - - - - - SSW 28 41 15 22 - - -
25/05:30pm - - - - - SSW 30 50 16 27 - - -
25/05:00pm - - - - - SW 30 50 16 27 - - -
25/04:59pm - - - - - SW 30 50 16 27 - - -
25/04:30pm - - - - - SSW 30 43 16 23 - - -
25/04:00pm - - - - - SSW 32 44 17 24 - - -
25/03:30pm - - - - - SSW 32 46 17 25 - - -
25/03:00pm - - - - - SSW 33 46 18 25 - - -
25/02:43pm - - - - - SSW 32 50 17 27 - - -
25/02:30pm - - - - - SSW 33 52 18 28 - - -
25/02:00pm - - - - - SSW 35 48 19 26 - - -
25/01:30pm - - - - - SSW 35 50 19 27 - - -
25/01:10pm - - - - - SSW 32 50 17 27 - - -
25/01:00pm - - - - - SSW 33 46 18 25 - - -
25/12:30pm - - - - - SSW 37 50 20 27 - - -
25/12:00pm - - - - - SSW 35 52 19 28 - - -
25/11:30am - - - - - S 37 54 20 29 - - -
25/11:14am - - - - - S 33 52 18 28 - - -
25/11:00am - - - - - S 33 50 18 27 - - -
25/10:34am - - - - - SSW 35 56 19 30 - - -
25/10:30am - - - - - SSW 35 48 19 26 - - -
25/10:00am - - - - - S 35 54 19 29 - - -
25/09:51am - - - - - S 35 54 19 29 - - -
25/09:30am - - - - - S 35 50 19 27 - - -
25/09:00am - - - - - S 39 56 21 30 - - -
25/08:30am - - - - - S 37 54 20 29 - - -
25/08:00am - - - - - S 35 52 19 28 - - -
25/07:30am - - - - - S 35 46 19 25 - - -
25/07:00am - - - - - S 35 48 19 26 - - -
25/06:30am - - - - - S 37 50 20 27 - - -
25/06:02am - - - - - S 35 56 19 30 - - -
25/06:00am - - - - - S 35 50 19 27 - - -
25/05:30am - - - - - S 35 48 19 26 - - -
25/05:00am - - - - - S 35 46 19 25 - - -
25/04:30am - - - - - S 33 48 18 26 - - -
25/04:07am - - - - - S 30 48 16 26 - - -
25/04:00am - - - - - S 30 43 16 23 - - -
25/03:30am - - - - - S 33 50 18 27 - - -
25/03:00am - - - - - S 33 48 18 26 - - -
25/02:30am - - - - - S 35 50 19 27 - - -
25/02:00am - - - - - S 35 50 19 27 - - -
25/01:30am - - - - - S 33 46 18 25 - - -
25/01:06am - - - - - SSW 30 48 16 26 - - -
25/01:00am - - - - - SSW 33 48 18 26 - - -
25/12:30am - - - - - SSW 35 48 19 26 - - -
25/12:00am - - - - - SSW 37 57 20 31 - - -
 
Date/Time
EDT
Temp
°C
App
Temp
°C
Dew
Point
°C
Rel
Hum
%
Delta-T
°C
Wind Press
QNH
hPa
Press
MSL
hPa
Rain since
9am
mm
Dir  Spd
km/h
Gust
km/h
Spd
kts
Gust
kts
24/11:30pm - - - - - SSW 41 70 22 38 - - -
24/11:22pm - - - - - SW 22 57 12 31 - - -
24/11:00pm - - - - - N 4 7 2 4 - - -
24/10:30pm - - - - - N 9 13 5 7 - - -
24/10:00pm - - - - - N 9 17 5 9 - - -
24/09:30pm - - - - - N 11 15 6 8 - - -
24/09:00pm - - - - - NNE 9 13 5 7 - - -
24/08:30pm - - - - - N 9 15 5 8 - - -
24/08:00pm - - - - - NNE 11 15 6 8 - - -
24/07:30pm - - - - - N 17 22 9 12 - - -
24/07:00pm - - - - - N 11 19 6 10 - - -
24/06:30pm - - - - - N 7 11 4 6 - - -
24/06:00pm - - - - - N 4 9 2 5 - - -
24/05:30pm - - - - - N 9 17 5 9 - - -
24/05:00pm - - - - - N 19 26 10 14 - - -
24/04:30pm - - - - - N 15 24 8 13 - - -
24/04:00pm - - - - - N 13 19 7 10 - - -
24/03:30pm - - - - - N 11 17 6 9 - - -
24/03:00pm - - - - - NNE 9 13 5 7 - - -
24/02:30pm - - - - - NNE 13 17 7 9 - - -
24/02:00pm - - - - - N 17 26 9 14 - - -
24/01:30pm - - - - - N 20 32 11 17 - - -
24/01:00pm - - - - - N 20 28 11 15 - - -
24/12:30pm - - - - - N 17 28 9 15 - - -
24/12:00pm - - - - - N 17 24 9 13 - - -
24/11:30am - - - - - NNE 20 28 11 15 - - -
24/11:00am - - - - - N 24 35 13 19 - - -
24/10:30am - - - - - NNW 17 32 9 17 - - -
24/10:00am - - - - - NNE 13 20 7 11 - - -
24/09:30am - - - - - NNE 15 20 8 11 - - -
24/09:00am - - - - - NNE 17 20 9 11 - - -
24/08:30am - - - - - NNE 19 26 10 14 - - -
24/08:00am - - - - - NNE 22 32 12 17 - - -
24/07:30am - - - - - NNE 15 22 8 12 - - -
24/07:00am - - - - - NNE 20 32 11 17 - - -
24/06:30am - - - - - NNE 17 24 9 13 - - -
24/06:00am - - - - - N 6 7 3 4 - - -
24/05:30am - - - - - NNE 6 7 3 4 - - -
24/05:00am - - - - - NNE 7 11 4 6 - - -
24/04:30am - - - - - NNE 6 7 3 4 - - -
24/04:00am - - - - - N 6 7 3 4 - - -
24/03:30am - - - - - W 6 9 3 5 - - -
24/03:00am - - - - - W 7 13 4 7 - - -
24/02:30am - - - - - NNE 13 19 7 10 - - -
24/02:00am - - - - - N 19 26 10 14 - - -
24/01:30am - - - - - NNE 19 28 10 15 - - -
24/01:00am - - - - - N 17 24 9 13 - - -
24/12:30am - - - - - N 19 30 10 16 - - -
24/12:00am - - - - - N 22 37 12 20 - - -
 
Date/Time
EDT
Temp
°C
App
Temp
°C
Dew
Point
°C
Rel
Hum
%
Delta-T
°C
Wind Press
QNH
hPa
Press
MSL
hPa
Rain since
9am
mm
Dir  Spd
km/h
Gust
km/h
Spd
kts
Gust
kts
23/11:30pm - - - - - NNE 26 35 14 19 - - -
23/11:00pm - - - - - NNE 33 46 18 25 - - -
23/10:30pm - - - - - NNE 33 43 18 23 - - -
23/10:00pm - - - - - NNE 35 46 19 25 - - -
23/09:30pm - - - - - NE 35 44 19 24 - - -
23/09:00pm - - - - - NE 35 44 19 24 - - -
23/08:30pm - - - - - NNE 35 46 19 25 - - -
23/08:00pm - - - - - NNE 33 43 18 23 - - -
23/07:30pm - - - - - NNE 33 44 18 24 - - -
23/07:00pm - - - - - NNE 33 44 18 24 - - -
23/06:30pm - - - - - NNE 33 43 18 23 - - -
23/06:00pm - - - - - NNE 32 41 17 22 - - -
23/05:30pm - - - - - NNE 30 39 16 21 - - -
23/05:00pm - - - - - NNE 32 39 17 21 - - -
23/04:30pm - - - - - NNE 30 37 16 20 - - -
23/04:00pm - - - - - NNE 30 39 16 21 - - -
23/03:30pm - - - - - NE 32 41 17 22 - - -
23/03:00pm - - - - - NE 26 33 14 18 - - -
23/02:30pm - - - - - NE 24 32 13 17 - - -
23/02:00pm - - - - - NE 22 30 12 16 - - -
23/01:30pm - - - - - NE 20 26 11 14 - - -

Other formats

Comma delimited format used in spreadsheet applications
http://www.bom.gov.au/fwo/IDN60801/IDN60801.94780.axf

JavaScript Object Notation format (JSON) in row-major order
http://www.bom.gov.au/fwo/IDN60801/IDN60801.94780.json

Data quality

Most of these data are generated automatically and are frequently updated. Quality checks on data are not normally performed. It is possible for incorrect values to appear. Refer to information at About Latest Weather Observations and please check the disclaimer before using these data.